Ride Results

The Don Challenge 2 Fri (05-11-2010)
Ride distance: 80.0 km

Outcomes - The Don Challenge 2 Fri (05-11-2010)
Division No. of Entries Retired / DNE Completed Withdrawn Ineligible V/O Percentage Completed
HW 3 - 3 - - - 100.00%
MW 12 - 10 1 - 1 83.33%
LW 5 - 5 - - - 100.00%
JN 4 - 4 - - - 100.00%
Totals 24 - 22 1 - 1 91.67%
Results - The Don Challenge 2 Fri (05-11-2010)
No. Rider Horse Place Time Leg Speeds Total
Km/Hr
H/R bpm
Heavyweight
133 Nick Riley Chazar Bandana 1 6:08:00 12.7, 12.9, 13.6 13.04 45, 50, 51, 51 (Avg:50)
163 Gavin Bartlett Cingala Royalle 2 (BC) 6:32:00 11.0, 13.6, 12.6 12.24 40, 45, 47, 45 (Avg:45)
159 Ven Grasso Moondarra Aragon 3 7:35:00 10.1, 10.6, 11.1 10.55 36, 47, 50, 54 (Avg:50)
Middleweight
121 Matthew Sample Anglesea Trooper 1 (BC) 4:46:00 16.4, 17.8, 16.1 16.78 36, 49, 46, 49 (Avg:48)
153 Caroline Fitzgerald Lanamere Kudos 2 5:16:00 16.1, 16.0, 13.1 15.19 44, 49, 48, 50 (Avg:49)
144 Fiona Fenech Gundabah Fair Lady 3 6:08:00 12.7, 12.9, 13.6 13.04 49, 54, 51, 54 (Avg:53)
155 Ken Moir Rio Yasnah 4 6:15:00 12.7, 13.0, 12.6 12.80 34, 47, 54, 53 (Avg:51)
161 Ronan Cahill Travina 5 7:35:00 10.1, 10.6, 11.1 10.55 34, 41, 47, 47 (Avg:45)
126 Patricia De Bruiyn Polly 6 7:38:00 9.7, 10.6, 11.5 10.48 34, 43, 45, 49 (Avg:45)
122 Pierre DeWit Indiana Jones te 6 7:38:00 9.6, 10.8, 11.4 10.48 40, 45, 45, 47 (Avg:45)
162 Signe Eres Beaudacious te 6 7:38:00 9.6, 10.8, 11.5 10.48 34, 48, 49, 49 (Avg:48)
131 Warwick Percival Sommariva Macho Man 6 7:38:00 9.7, 10.6, 11.5 10.48 32, 42, 41, 42 (Avg:41)
130 Kerstin Hoefner Nina 10 7:39:00 9.6, 10.8, 11.4 10.46 39, 44, 46, 47 (Avg:45)
137 Bob Sample Rose Gum Markarah Heart Rate L3 0:00:00 12.7, 11.9, 9.6 - 42, 54, 57, 62 (Avg:57)
160 Bridget Nottle Razorback Wings of Cochise Widthdrawn L1 0:00:00 - - 36, 53 (Avg:53)
Lightweight
134 Jess Langridge Clovelly Park Tazeem 1 (BC) 4:46:00 16.4, 17.8, 16.1 16.78 34, 37, 47, 45 (Avg:43)
165 Jess Capek The Wrangler 2 6:05:00 12.7, 13.3, 13.4 13.15 45, 50, 55, 53 (Avg:52)
146 Lisa Burgess Hill Stone Halimah 3 6:32:00 12.6, 12.6, 11.2 12.24 38, 45, 49, 54 (Avg:49)
154 Sonya Ryan Lindall Farvio 4 6:33:00 12.6, 12.5, 11.2 12.21 38, 42, 44, 51 (Avg:45)
138 Susan Kelman Jayhal Moonlight 5 6:56:00 11.0, 13.6, 10.1 11.54 32, 43, 45, 46 (Avg:44)
Junior
145 Hannah Houlden Googabilla Lodge Starlight 1 (BC) 4:50:00 16.4, 17.8, 15.3 16.55 40, 46, 50, 46 (Avg:47)
164 Natasha Willemse Cheraz Silver Pocket 2 5:16:00 16.1, 16.0, 13.1 15.19 40, 44, 42, 41 (Avg:42)
156 David Anderson Jnr Hillbrae Kaszan 3 6:05:00 12.7, 13.0, 13.9 13.15 33, 44, 48, 47 (Avg:46)
158 India Hutchinson Bank on the Bay 4 6:15:00 12.7, 12.8, 12.8 12.80 38, 43, 44, 47 (Avg:44)